createdAt,value
2016-12-24T00:00:20.436Z,966.73
2016-12-24T00:00:46.423Z,966.69
2016-12-24T00:01:12.412Z,966.71
2016-12-24T00:01:38.406Z,966.69
2016-12-24T00:02:04.393Z,966.67
2016-12-24T00:02:30.419Z,966.67
2016-12-24T00:02:56.408Z,966.65
2016-12-24T00:03:22.408Z,966.63
2016-12-24T00:03:48.387Z,966.63
2016-12-24T00:04:14.390Z,966.59
2016-12-24T00:04:40.406Z,966.59
2016-12-24T00:05:06.387Z,966.61
2016-12-24T00:05:32.370Z,966.66
2016-12-24T00:05:58.356Z,966.66
2016-12-24T00:06:24.339Z,966.67
2016-12-24T00:06:50.327Z,966.68
2016-12-24T00:07:16.311Z,966.7
2016-12-24T00:07:42.297Z,966.7
2016-12-24T00:08:08.288Z,966.69
2016-12-24T00:08:34.272Z,966.67
2016-12-24T00:09:00.266Z,966.68
2016-12-24T00:09:26.253Z,966.7
2016-12-24T00:09:52.238Z,966.68
2016-12-24T00:10:18.234Z,966.66
2016-12-24T00:10:44.223Z,966.64
2016-12-24T00:11:10.214Z,966.69
2016-12-24T00:11:36.194Z,966.68
2016-12-24T00:12:02.178Z,966.66
2016-12-24T00:12:28.159Z,966.68
2016-12-24T00:12:54.143Z,966.68
2016-12-24T00:13:20.128Z,966.66
2016-12-24T00:13:46.117Z,966.66
2016-12-24T00:14:12.105Z,966.66
2016-12-24T00:14:38.086Z,966.67
2016-12-24T00:15:04.082Z,966.65
2016-12-24T00:15:30.056Z,966.67
2016-12-24T00:15:56.043Z,966.67
2016-12-24T00:16:22.035Z,966.66
2016-12-24T00:16:48.030Z,966.66
2016-12-24T00:17:14.017Z,966.71
2016-12-24T00:17:39.998Z,966.72
2016-12-24T00:18:05.983Z,966.72
2016-12-24T00:18:31.966Z,966.73
2016-12-24T00:18:57.951Z,966.78
2016-12-24T00:19:23.938Z,966.76
2016-12-24T00:19:49.920Z,966.79
2016-12-24T00:20:15.902Z,966.81
2016-12-24T00:20:41.886Z,966.78
2016-12-24T00:21:07.871Z,966.78
2016-12-24T00:21:33.858Z,966.81
2016-12-24T00:21:59.851Z,966.81
2016-12-24T00:22:25.840Z,966.8
2016-12-24T00:22:51.824Z,966.79
2016-12-24T00:23:17.811Z,966.8
2016-12-24T00:23:43.794Z,966.78
2016-12-24T00:24:09.880Z,966.76
2016-12-24T00:24:35.864Z,966.76
2016-12-24T00:25:01.871Z,966.75
2016-12-24T00:25:27.858Z,966.71
2016-12-24T00:25:53.850Z,966.67
2016-12-24T00:26:19.855Z,966.68
2016-12-24T00:26:45.834Z,966.65
2016-12-24T00:27:11.817Z,966.61
2016-12-24T00:27:37.824Z,966.63
2016-12-24T00:28:03.820Z,966.6
2016-12-24T00:28:29.810Z,966.56
2016-12-24T00:28:55.905Z,966.59
2016-12-24T00:29:21.890Z,966.58
2016-12-24T00:29:47.872Z,966.61
2016-12-24T00:30:13.861Z,966.58
2016-12-24T00:30:39.853Z,966.58
2016-12-24T00:31:05.838Z,966.6
2016-12-24T00:31:31.821Z,966.64
2016-12-24T00:31:57.802Z,966.65
2016-12-24T00:32:23.789Z,966.6
2016-12-24T00:32:49.773Z,966.63
2016-12-24T00:33:15.756Z,966.64
2016-12-24T00:33:41.742Z,966.64
2016-12-24T00:34:07.727Z,966.65
2016-12-24T00:34:33.711Z,966.65
2016-12-24T00:34:59.701Z,966.67
2016-12-24T00:35:25.684Z,966.68
2016-12-24T00:35:51.667Z,966.67
2016-12-24T00:36:17.671Z,966.67
2016-12-24T00:36:43.663Z,966.61
2016-12-24T00:37:09.664Z,966.61
2016-12-24T00:37:35.667Z,966.6
2016-12-24T00:38:01.689Z,966.59
2016-12-24T00:38:27.668Z,966.62
2016-12-24T00:38:53.673Z,966.62
2016-12-24T00:39:19.667Z,966.58
2016-12-24T00:39:45.653Z,966.61
2016-12-24T00:40:11.638Z,966.61
2016-12-24T00:40:37.621Z,966.61
2016-12-24T00:41:03.605Z,966.58
2016-12-24T00:41:29.590Z,966.57
2016-12-24T00:41:55.579Z,966.59
2016-12-24T00:42:21.566Z,966.65
2016-12-24T00:42:47.548Z,966.61
2016-12-24T00:43:13.529Z,966.62
2016-12-24T00:43:39.530Z,966.63
2016-12-24T00:44:05.516Z,966.62
2016-12-24T00:44:31.499Z,966.63
2016-12-24T00:44:57.490Z,966.61
2016-12-24T00:45:23.479Z,966.63
2016-12-24T00:45:49.466Z,966.59
2016-12-24T00:46:15.449Z,966.58
2016-12-24T00:46:41.433Z,966.61
2016-12-24T00:47:07.415Z,966.6
2016-12-24T00:47:33.409Z,966.57
2016-12-24T00:47:59.391Z,966.59
2016-12-24T00:48:25.371Z,966.57
2016-12-24T00:48:51.360Z,966.55
2016-12-24T00:49:17.345Z,966.54
2016-12-24T00:49:43.333Z,966.51
2016-12-24T00:50:09.319Z,966.54
2016-12-24T00:50:35.303Z,966.54
2016-12-24T00:51:01.306Z,966.54
2016-12-24T00:51:27.292Z,966.54
2016-12-24T00:51:53.288Z,966.53
2016-12-24T00:52:19.270Z,966.53
2016-12-24T00:52:45.256Z,966.54
2016-12-24T00:53:11.241Z,966.58
2016-12-24T00:53:37.229Z,966.56
2016-12-24T00:54:03.315Z,966.55
2016-12-24T00:54:29.304Z,966.53
2016-12-24T00:54:55.295Z,966.58
2016-12-24T00:55:21.292Z,966.55
2016-12-24T00:55:47.294Z,966.52
2016-12-24T00:56:13.279Z,966.53
2016-12-24T00:56:39.266Z,966.48
2016-12-24T00:57:05.265Z,966.49
2016-12-24T00:57:31.250Z,966.53
2016-12-24T00:57:57.236Z,966.51
2016-12-24T00:58:23.292Z,966.51
2016-12-24T00:58:49.279Z,966.51
2016-12-24T00:59:15.284Z,966.58
2016-12-24T00:59:41.267Z,966.57
2016-12-24T01:00:07.255Z,966.59
2016-12-24T01:00:33.239Z,966.53
2016-12-24T01:00:59.223Z,966.52
2016-12-24T01:01:25.207Z,966.47
2016-12-24T01:01:51.197Z,966.5
2016-12-24T01:02:17.183Z,966.46
2016-12-24T01:02:43.168Z,966.45
2016-12-24T01:03:09.155Z,966.44
2016-12-24T01:03:35.145Z,966.45
2016-12-24T01:04:01.130Z,966.45
2016-12-24T01:04:27.218Z,966.48
2016-12-24T01:04:53.205Z,966.45
2016-12-24T01:05:19.191Z,966.42
2016-12-24T01:05:45.178Z,966.43
2016-12-24T01:06:11.160Z,966.42
2016-12-24T01:06:37.146Z,966.41
2016-12-24T01:07:03.133Z,966.39
2016-12-24T01:07:29.116Z,966.34
2016-12-24T01:07:55.119Z,966.31
2016-12-24T01:08:21.113Z,966.32
2016-12-24T01:08:47.091Z,966.27
2016-12-24T01:09:13.186Z,966.27
2016-12-24T01:09:39.171Z,966.25
2016-12-24T01:10:05.160Z,966.26
2016-12-24T01:10:31.143Z,966.2
2016-12-24T01:10:57.140Z,966.26
2016-12-24T01:11:23.140Z,966.22
2016-12-24T01:11:49.129Z,966.22
2016-12-24T01:12:15.142Z,966.21
2016-12-24T01:12:41.138Z,966.24
2016-12-24T01:13:07.156Z,966.21
2016-12-24T01:13:33.129Z,966.2
2016-12-24T01:13:59.127Z,966.18
2016-12-24T01:14:25.125Z,966.16
2016-12-24T01:14:51.109Z,966.15
2016-12-24T01:15:17.094Z,966.16
2016-12-24T01:15:43.076Z,966.15
2016-12-24T01:16:09.069Z,966.16
2016-12-24T01:16:35.054Z,966.17
2016-12-24T01:17:01.040Z,966.16
2016-12-24T01:17:27.025Z,966.13
2016-12-24T01:17:53.006Z,966.13
2016-12-24T01:18:18.992Z,966.15
2016-12-24T01:18:44.980Z,966.15
2016-12-24T01:19:10.976Z,966.12
2016-12-24T01:19:36.960Z,966.09
2016-12-24T01:20:02.952Z,966.12
2016-12-24T01:20:28.947Z,966.14
2016-12-24T01:20:54.938Z,966.11
2016-12-24T01:21:20.935Z,966.1
2016-12-24T01:21:46.918Z,966.1
2016-12-24T01:22:12.906Z,966.14
2016-12-24T01:22:38.890Z,966.14
2016-12-24T01:23:04.875Z,966.2
2016-12-24T01:23:30.858Z,966.21
2016-12-24T01:23:56.843Z,966.2
2016-12-24T01:24:22.828Z,966.22
2016-12-24T01:24:48.818Z,966.24
2016-12-24T01:25:14.800Z,966.23
2016-12-24T01:25:40.794Z,966.25
2016-12-24T01:26:06.787Z,966.21
2016-12-24T01:26:32.776Z,966.17
2016-12-24T01:26:58.760Z,966.19
2016-12-24T01:27:24.753Z,966.2
2016-12-24T01:27:50.751Z,966.22
2016-12-24T01:28:16.746Z,966.21
2016-12-24T01:28:42.726Z,966.25
2016-12-24T01:29:08.710Z,966.24
2016-12-24T01:29:34.694Z,966.28
2016-12-24T01:30:00.678Z,966.32
2016-12-24T01:30:26.661Z,966.35
2016-12-24T01:30:52.647Z,966.37
2016-12-24T01:31:18.628Z,966.37
2016-12-24T01:31:44.619Z,966.38
2016-12-24T01:32:10.605Z,966.34
2016-12-24T01:32:36.595Z,966.36
2016-12-24T01:33:02.578Z,966.35
2016-12-24T01:33:28.569Z,966.39
2016-12-24T01:33:54.575Z,966.42
2016-12-24T01:34:20.561Z,966.43
2016-12-24T01:34:46.558Z,966.42
2016-12-24T01:35:12.543Z,966.43
2016-12-24T01:35:38.559Z,966.44
2016-12-24T01:36:04.543Z,966.47
2016-12-24T01:36:30.529Z,966.47
2016-12-24T01:36:56.512Z,966.41
2016-12-24T01:37:22.509Z,966.46
2016-12-24T01:37:48.497Z,966.45
2016-12-24T01:38:14.483Z,966.41
2016-12-24T01:38:40.469Z,966.48
2016-12-24T01:39:06.452Z,966.45
2016-12-24T01:39:32.537Z,966.49
2016-12-24T01:39:58.522Z,966.48
2016-12-24T01:40:24.508Z,966.52
2016-12-24T01:40:50.525Z,966.5
2016-12-24T01:41:16.476Z,966.52
2016-12-24T01:41:42.459Z,966.51
2016-12-24T01:42:08.447Z,966.53
2016-12-24T01:42:34.435Z,966.5
2016-12-24T01:43:00.417Z,966.51
2016-12-24T01:43:26.405Z,966.54
2016-12-24T01:43:52.387Z,966.53
2016-12-24T01:44:18.380Z,966.55
2016-12-24T01:44:44.377Z,966.53
2016-12-24T01:45:10.376Z,966.55
2016-12-24T01:45:36.372Z,966.55
2016-12-24T01:46:02.376Z,966.49
2016-12-24T01:46:28.369Z,966.49
2016-12-24T01:46:54.370Z,966.42
2016-12-24T01:47:20.365Z,966.44
2016-12-24T01:47:46.348Z,966.44
2016-12-24T01:48:12.332Z,966.45
2016-12-24T01:48:38.316Z,966.52
2016-12-24T01:49:04.300Z,966.57
2016-12-24T01:49:30.286Z,966.54
2016-12-24T01:49:56.287Z,966.51
2016-12-24T01:50:22.275Z,966.46
2016-12-24T01:50:48.260Z,966.5
2016-12-24T01:51:14.253Z,966.46
2016-12-24T01:51:40.237Z,966.45
2016-12-24T01:52:06.233Z,966.45
2016-12-24T01:52:32.220Z,966.48
2016-12-24T01:52:58.205Z,966.49
2016-12-24T01:53:24.199Z,966.51
2016-12-24T01:53:50.192Z,966.52
2016-12-24T01:54:16.183Z,966.52
2016-12-24T01:54:42.267Z,966.51
2016-12-24T01:55:08.254Z,966.52
2016-12-24T01:55:34.239Z,966.52
2016-12-24T01:56:00.230Z,966.51
2016-12-24T01:56:26.212Z,966.6
2016-12-24T01:56:52.208Z,966.54
2016-12-24T01:57:18.197Z,966.57
2016-12-24T01:57:44.193Z,966.56
2016-12-24T01:58:10.174Z,966.54
2016-12-24T01:58:36.157Z,966.55
2016-12-24T01:59:02.141Z,966.53
2016-12-24T01:59:28.139Z,966.54
2016-12-24T01:59:54.123Z,966.53
2016-12-24T02:00:20.107Z,966.56
2016-12-24T02:00:46.090Z,966.51
2016-12-24T02:01:12.076Z,966.55
2016-12-24T02:01:38.057Z,966.53
2016-12-24T02:02:04.043Z,966.51
2016-12-24T02:02:30.029Z,966.53
2016-12-24T02:02:56.016Z,966.54
2016-12-24T02:03:22.016Z,966.54
2016-12-24T02:03:48.006Z,966.53
2016-12-24T02:04:14.006Z,966.53
2016-12-24T02:04:40.019Z,966.49
2016-12-24T02:05:06.019Z,966.48
2016-12-24T02:05:32.010Z,966.53
2016-12-24T02:05:57.999Z,966.47
2016-12-24T02:06:23.978Z,966.5
2016-12-24T02:06:49.965Z,966.5
2016-12-24T02:07:15.949Z,966.53
2016-12-24T02:07:41.932Z,966.56
2016-12-24T02:08:07.930Z,966.55
2016-12-24T02:08:33.914Z,966.57
2016-12-24T02:08:59.904Z,966.59
2016-12-24T02:09:25.890Z,966.62
2016-12-24T02:09:51.875Z,966.63
2016-12-24T02:10:17.865Z,966.62
2016-12-24T02:10:43.858Z,966.63
2016-12-24T02:11:09.848Z,966.65
2016-12-24T02:11:35.836Z,966.69
2016-12-24T02:12:01.820Z,966.64
2016-12-24T02:12:27.823Z,966.66
2016-12-24T02:12:53.805Z,966.65
2016-12-24T02:13:19.792Z,966.7
2016-12-24T02:13:45.789Z,966.65
2016-12-24T02:14:11.775Z,966.68
2016-12-24T02:14:37.763Z,966.66
2016-12-24T02:15:03.746Z,966.65
2016-12-24T02:15:29.733Z,966.68
2016-12-24T02:15:55.723Z,966.64
2016-12-24T02:16:21.712Z,966.64
2016-12-24T02:16:47.689Z,966.65
2016-12-24T02:17:13.672Z,966.63
2016-12-24T02:17:39.665Z,966.69
2016-12-24T02:18:05.650Z,966.64
2016-12-24T02:18:31.641Z,966.67
2016-12-24T02:18:57.655Z,966.7
2016-12-24T02:19:23.671Z,966.72
2016-12-24T02:19:49.662Z,966.75
2016-12-24T02:20:15.675Z,966.76
2016-12-24T02:20:41.648Z,966.78
2016-12-24T02:21:07.643Z,966.75
2016-12-24T02:21:33.629Z,966.77
2016-12-24T02:21:59.631Z,966.77
2016-12-24T02:22:25.610Z,966.73
2016-12-24T02:22:51.596Z,966.76
2016-12-24T02:23:17.580Z,966.74
2016-12-24T02:23:43.566Z,966.76
2016-12-24T02:24:09.550Z,966.81
2016-12-24T02:24:35.536Z,966.79
2016-12-24T02:25:01.519Z,966.8
2016-12-24T02:25:27.503Z,966.76
2016-12-24T02:25:53.487Z,966.73
2016-12-24T02:26:19.471Z,966.73
2016-12-24T02:26:45.458Z,966.72
2016-12-24T02:27:11.454Z,966.65
2016-12-24T02:27:37.443Z,966.66
2016-12-24T02:28:03.435Z,966.69
2016-12-24T02:28:29.419Z,966.7
2016-12-24T02:28:55.411Z,966.73
2016-12-24T02:29:21.396Z,966.74
2016-12-24T02:29:47.378Z,966.74
2016-12-24T02:30:13.363Z,966.8
2016-12-24T02:30:39.347Z,966.87
2016-12-24T02:31:05.329Z,966.83
2016-12-24T02:31:31.313Z,966.78
2016-12-24T02:31:57.298Z,966.83
2016-12-24T02:32:23.285Z,966.82
2016-12-24T02:32:49.271Z,966.83
2016-12-24T02:33:15.262Z,966.82
2016-12-24T02:33:41.252Z,966.81
2016-12-24T02:34:07.237Z,966.8
2016-12-24T02:34:33.228Z,966.83
2016-12-24T02:34:59.206Z,966.85
2016-12-24T02:35:25.194Z,966.85
2016-12-24T02:35:51.182Z,966.86
2016-12-24T02:36:17.172Z,966.86
2016-12-24T02:36:43.158Z,966.87
2016-12-24T02:37:09.140Z,966.86
2016-12-24T02:37:35.124Z,966.91
2016-12-24T02:38:01.124Z,966.88
2016-12-24T02:38:27.110Z,966.86
2016-12-24T02:38:53.097Z,966.88
2016-12-24T02:39:19.084Z,966.84
2016-12-24T02:39:45.076Z,966.88
2016-12-24T02:40:11.076Z,966.82
2016-12-24T02:40:37.075Z,966.85
2016-12-24T02:41:03.066Z,966.84
2016-12-24T02:41:29.063Z,966.85
2016-12-24T02:41:55.048Z,966.82
2016-12-24T02:42:21.036Z,966.83
2016-12-24T02:42:47.020Z,966.84
2016-12-24T02:43:13.004Z,966.85
2016-12-24T02:43:39.004Z,966.9
2016-12-24T02:44:04.986Z,966.87
2016-12-24T02:44:30.970Z,966.87
2016-12-24T02:44:56.952Z,966.87
2016-12-24T02:45:22.938Z,966.88
2016-12-24T02:45:48.921Z,966.85
2016-12-24T02:46:14.914Z,966.87
2016-12-24T02:46:40.897Z,966.84
2016-12-24T02:47:06.897Z,966.84
2016-12-24T02:47:32.877Z,966.85
2016-12-24T02:47:58.873Z,966.86
2016-12-24T02:48:24.857Z,966.86
2016-12-24T02:48:50.841Z,966.9
2016-12-24T02:49:16.824Z,966.9
2016-12-24T02:49:42.818Z,966.8
2016-12-24T02:50:08.803Z,966.86
2016-12-24T02:50:34.785Z,966.83
2016-12-24T02:51:00.768Z,966.81
2016-12-24T02:51:26.757Z,966.82
2016-12-24T02:51:52.737Z,966.81
2016-12-24T02:52:18.730Z,966.8
2016-12-24T02:52:44.719Z,966.82
2016-12-24T02:53:10.713Z,966.81
2016-12-24T02:53:36.718Z,966.82
2016-12-24T02:54:02.701Z,966.84
2016-12-24T02:54:28.696Z,966.8
2016-12-24T02:54:54.694Z,966.85
2016-12-24T02:55:20.705Z,966.88
2016-12-24T02:55:46.684Z,966.82
2016-12-24T02:56:12.669Z,966.79
2016-12-24T02:56:38.667Z,966.79
2016-12-24T02:57:04.650Z,966.79
2016-12-24T02:57:30.634Z,966.79
2016-12-24T02:57:56.619Z,966.78
2016-12-24T02:58:22.607Z,966.81
2016-12-24T02:58:48.588Z,966.81
2016-12-24T02:59:14.573Z,966.8
2016-12-24T02:59:40.659Z,966.78
2016-12-24T03:00:06.642Z,966.79
2016-12-24T03:00:32.625Z,966.76
2016-12-24T03:00:58.610Z,966.73
2016-12-24T03:01:24.594Z,966.73
2016-12-24T03:01:50.576Z,966.72
2016-12-24T03:02:16.559Z,966.68
2016-12-24T03:02:42.544Z,966.7
2016-12-24T03:03:08.536Z,966.67
2016-12-24T03:03:34.522Z,966.65
2016-12-24T03:04:00.524Z,966.65
2016-12-24T03:04:26.502Z,966.65
2016-12-24T03:04:52.486Z,966.67
2016-12-24T03:05:18.473Z,966.65
2016-12-24T03:05:44.455Z,966.65
2016-12-24T03:06:10.440Z,966.62
2016-12-24T03:06:36.423Z,966.64
2016-12-24T03:07:02.406Z,966.62
2016-12-24T03:07:28.392Z,966.65
2016-12-24T03:07:54.377Z,966.67
2016-12-24T03:08:20.369Z,966.66
2016-12-24T03:08:46.353Z,966.67
2016-12-24T03:09:12.335Z,966.63
2016-12-24T03:09:38.324Z,966.64
2016-12-24T03:10:04.310Z,966.64
2016-12-24T03:10:30.292Z,966.67
2016-12-24T03:10:56.274Z,966.6
2016-12-24T03:11:22.258Z,966.66
2016-12-24T03:11:48.245Z,966.6
2016-12-24T03:12:14.228Z,966.63
2016-12-24T03:12:40.213Z,966.68
2016-12-24T03:13:06.202Z,966.63
2016-12-24T03:13:32.189Z,966.59
2016-12-24T03:13:58.174Z,966.58
2016-12-24T03:14:24.157Z,966.6
2016-12-24T03:14:50.156Z,966.57
2016-12-24T03:15:16.150Z,966.58
2016-12-24T03:15:42.133Z,966.54
2016-12-24T03:16:08.122Z,966.57
2016-12-24T03:16:34.112Z,966.56
2016-12-24T03:17:00.094Z,966.56
2016-12-24T03:17:26.078Z,966.52
2016-12-24T03:17:52.060Z,966.55
2016-12-24T03:18:18.051Z,966.49
2016-12-24T03:18:44.036Z,966.48
2016-12-24T03:19:10.022Z,966.47
2016-12-24T03:19:36.006Z,966.46
2016-12-24T03:20:01.993Z,966.49
2016-12-24T03:20:27.975Z,966.46
2016-12-24T03:20:53.960Z,966.46
2016-12-24T03:21:19.948Z,966.52
2016-12-24T03:21:45.942Z,966.54
2016-12-24T03:22:13.183Z,966.52
2016-12-24T03:22:39.144Z,966.56
2016-12-24T03:23:05.137Z,966.54
2016-12-24T03:23:31.130Z,966.54
2016-12-24T03:23:57.130Z,966.53
2016-12-24T03:24:23.109Z,966.51
2016-12-24T03:24:49.092Z,966.56
2016-12-24T03:25:15.080Z,966.54
2016-12-24T03:25:41.066Z,966.56
2016-12-24T03:26:07.049Z,966.53
2016-12-24T03:26:33.030Z,966.49
2016-12-24T03:26:59.021Z,966.53
2016-12-24T03:27:25.034Z,966.52
2016-12-24T03:27:51.051Z,966.51
2016-12-24T03:28:17.047Z,966.49
2016-12-24T03:28:43.028Z,966.51
2016-12-24T03:29:09.019Z,966.5
2016-12-24T03:29:34.999Z,966.5
2016-12-24T03:30:00.992Z,966.5
2016-12-24T03:30:26.977Z,966.53
2016-12-24T03:30:52.968Z,966.49
2016-12-24T03:31:18.958Z,966.47
2016-12-24T03:31:44.946Z,966.52
2016-12-24T03:32:10.931Z,966.5
2016-12-24T03:32:36.914Z,966.54
2016-12-24T03:33:02.899Z,966.53
2016-12-24T03:33:28.885Z,966.56
2016-12-24T03:33:54.866Z,966.6
2016-12-24T03:34:20.856Z,966.56
2016-12-24T03:34:46.840Z,966.56
2016-12-24T03:35:12.924Z,966.56
2016-12-24T03:35:38.913Z,966.57
2016-12-24T03:36:04.903Z,966.54
2016-12-24T03:36:30.890Z,966.55
2016-12-24T03:36:56.872Z,966.53
2016-12-24T03:37:22.859Z,966.57
2016-12-24T03:37:48.844Z,966.53
2016-12-24T03:38:14.829Z,966.58
2016-12-24T03:38:40.819Z,966.56
2016-12-24T03:39:06.802Z,966.56
2016-12-24T03:39:32.788Z,966.57
2016-12-24T03:39:58.781Z,966.54
2016-12-24T03:40:24.772Z,966.55
2016-12-24T03:40:50.759Z,966.5
2016-12-24T03:41:16.754Z,966.51
2016-12-24T03:41:42.735Z,966.53
2016-12-24T03:42:08.721Z,966.51
2016-12-24T03:42:34.712Z,966.47
2016-12-24T03:43:00.706Z,966.46
2016-12-24T03:43:26.690Z,966.47
2016-12-24T03:43:52.690Z,966.45
2016-12-24T03:44:18.665Z,966.43
2016-12-24T03:44:44.650Z,966.44
2016-12-24T03:45:10.635Z,966.38
2016-12-24T03:45:36.617Z,966.39
2016-12-24T03:46:02.612Z,966.42
2016-12-24T03:46:28.598Z,966.39
2016-12-24T03:46:54.586Z,966.36
2016-12-24T03:47:20.574Z,966.37
2016-12-24T03:47:46.571Z,966.39
2016-12-24T03:48:12.559Z,966.38
2016-12-24T03:48:38.551Z,966.39
2016-12-24T03:49:04.531Z,966.36
2016-12-24T03:49:30.520Z,966.34
2016-12-24T03:49:56.501Z,966.35
2016-12-24T03:50:22.485Z,966.34
2016-12-24T03:50:48.480Z,966.4
2016-12-24T03:51:14.464Z,966.41
2016-12-24T03:51:40.447Z,966.39
2016-12-24T03:52:06.443Z,966.39
2016-12-24T03:52:32.438Z,966.37
2016-12-24T03:52:58.441Z,966.34
2016-12-24T03:53:24.427Z,966.31
2016-12-24T03:53:50.411Z,966.33
2016-12-24T03:54:16.394Z,966.32
2016-12-24T03:54:42.380Z,966.33
2016-12-24T03:55:08.367Z,966.35
2016-12-24T03:55:34.354Z,966.31
2016-12-24T03:56:00.341Z,966.3
2016-12-24T03:56:26.324Z,966.29
2016-12-24T03:56:52.307Z,966.26
2016-12-24T03:57:18.288Z,966.18
2016-12-24T03:57:44.679Z,966.2
2016-12-24T03:58:10.870Z,966.23
2016-12-24T03:58:36.852Z,966.19
2016-12-24T03:59:02.836Z,966.17
2016-12-24T03:59:28.825Z,966.16
2016-12-24T03:59:54.805Z,966.18
2016-12-24T04:00:20.803Z,966.17
2016-12-24T04:00:46.804Z,966.11
2016-12-24T04:01:12.793Z,966.09
2016-12-24T04:01:38.793Z,966.05
2016-12-24T04:02:04.837Z,966.08
2016-12-24T04:02:30.776Z,966.09
2016-12-24T04:02:56.785Z,966.07
2016-12-24T04:03:22.767Z,966.09
2016-12-24T04:03:48.754Z,966.13
2016-12-24T04:04:14.745Z,966.15
2016-12-24T04:04:40.729Z,966.17
2016-12-24T04:05:06.713Z,966.13
2016-12-24T04:05:32.697Z,966.16
2016-12-24T04:05:58.680Z,966.16
2016-12-24T04:06:24.677Z,966.22
2016-12-24T04:06:50.669Z,966.21
2016-12-24T04:07:16.657Z,966.23
2016-12-24T04:07:42.640Z,966.24
2016-12-24T04:08:08.625Z,966.26
2016-12-24T04:08:34.607Z,966.29
2016-12-24T04:09:00.595Z,966.3
2016-12-24T04:09:26.576Z,966.34
2016-12-24T04:09:52.567Z,966.35
2016-12-24T04:10:18.659Z,966.31
2016-12-24T04:10:44.646Z,966.3
2016-12-24T04:11:10.632Z,966.3
2016-12-24T04:11:36.611Z,966.32
2016-12-24T04:12:02.611Z,966.29
2016-12-24T04:12:28.597Z,966.31
2016-12-24T04:12:54.592Z,966.3
2016-12-24T04:13:20.576Z,966.32
2016-12-24T04:13:46.558Z,966.27
2016-12-24T04:14:12.547Z,966.35
2016-12-24T04:14:38.536Z,966.33
2016-12-24T04:15:04.518Z,966.33
2016-12-24T04:15:30.503Z,966.33
2016-12-24T04:15:56.498Z,966.35
2016-12-24T04:16:22.506Z,966.36
2016-12-24T04:16:48.494Z,966.39
2016-12-24T04:17:14.478Z,966.41
2016-12-24T04:17:40.460Z,966.44
2016-12-24T04:18:06.443Z,966.41
2016-12-24T04:18:32.432Z,966.44
2016-12-24T04:18:58.422Z,966.43
2016-12-24T04:19:24.409Z,966.41
2016-12-24T04:19:50.394Z,966.38
2016-12-24T04:20:16.378Z,966.42
2016-12-24T04:20:42.366Z,966.4
2016-12-24T04:21:08.352Z,966.41
2016-12-24T04:21:34.335Z,966.37
2016-12-24T04:22:00.318Z,966.44
2016-12-24T04:22:26.562Z,966.43
2016-12-24T04:22:52.550Z,966.4
2016-12-24T04:23:18.535Z,966.41
2016-12-24T04:23:44.516Z,966.39
2016-12-24T04:24:10.513Z,966.4
2016-12-24T04:24:36.498Z,966.45
2016-12-24T04:25:02.483Z,966.44
2016-12-24T04:25:28.465Z,966.43
2016-12-24T04:25:54.479Z,966.43
2016-12-24T04:26:20.446Z,966.49
2016-12-24T04:26:46.435Z,966.45
2016-12-24T04:27:12.436Z,966.48
2016-12-24T04:27:38.436Z,966.49
2016-12-24T04:28:04.418Z,966.45
2016-12-24T04:28:30.403Z,966.46
2016-12-24T04:28:56.388Z,966.47
2016-12-24T04:29:22.375Z,966.47
2016-12-24T04:29:48.360Z,966.46
2016-12-24T04:30:14.342Z,966.45
2016-12-24T04:30:40.328Z,966.46
2016-12-24T04:31:06.313Z,966.44
2016-12-24T04:31:32.295Z,966.41
2016-12-24T04:31:58.281Z,966.42
2016-12-24T04:32:24.287Z,966.41
2016-12-24T04:32:50.272Z,966.42
2016-12-24T04:33:16.258Z,966.41
2016-12-24T04:33:42.262Z,966.41
2016-12-24T04:34:08.248Z,966.38
2016-12-24T04:34:34.241Z,966.38
2016-12-24T04:35:00.225Z,966.35
2016-12-24T04:35:26.209Z,966.37
2016-12-24T04:35:52.201Z,966.33
2016-12-24T04:36:18.207Z,966.35
2016-12-24T04:36:44.202Z,966.32
2016-12-24T04:37:10.196Z,966.27
2016-12-24T04:37:36.203Z,966.29
2016-12-24T04:38:02.186Z,966.23
2016-12-24T04:38:28.161Z,966.26
2016-12-24T04:38:54.148Z,966.25
2016-12-24T04:39:20.129Z,966.19
2016-12-24T04:39:46.114Z,966.22
2016-12-24T04:40:12.208Z,966.23
2016-12-24T04:40:38.194Z,966.22
2016-12-24T04:41:04.178Z,966.24
2016-12-24T04:41:30.162Z,966.22
2016-12-24T04:41:56.145Z,966.25
2016-12-24T04:42:22.132Z,966.24
2016-12-24T04:42:48.107Z,966.31
2016-12-24T04:43:14.096Z,966.23
2016-12-24T04:43:40.082Z,966.19
2016-12-24T04:44:06.069Z,966.22
2016-12-24T04:44:32.062Z,966.19
2016-12-24T04:44:58.050Z,966.21
2016-12-24T04:45:24.035Z,966.22
2016-12-24T04:45:50.021Z,966.25
2016-12-24T04:46:16.005Z,966.28
2016-12-24T04:46:42.007Z,966.24
2016-12-24T04:47:07.991Z,966.21
2016-12-24T04:47:33.976Z,966.25
2016-12-24T04:47:59.960Z,966.23
2016-12-24T04:48:25.949Z,966.22
2016-12-24T04:48:51.930Z,966.18
2016-12-24T04:49:17.914Z,966.21
2016-12-24T04:49:43.896Z,966.23
2016-12-24T04:50:09.888Z,966.21
2016-12-24T04:50:35.885Z,966.19
2016-12-24T04:51:01.887Z,966.23
2016-12-24T04:51:27.878Z,966.2
2016-12-24T04:51:53.889Z,966.2
2016-12-24T04:52:19.877Z,966.2
2016-12-24T04:52:45.878Z,966.21
2016-12-24T04:53:11.871Z,966.25
2016-12-24T04:53:37.854Z,966.24
2016-12-24T04:54:03.846Z,966.19
2016-12-24T04:54:29.869Z,966.19
2016-12-24T04:54:55.857Z,966.19
2016-12-24T04:55:21.894Z,966.16
2016-12-24T04:55:47.883Z,966.13
2016-12-24T04:56:13.882Z,966.15
2016-12-24T04:56:39.868Z,966.18
2016-12-24T04:57:05.852Z,966.15
2016-12-24T04:57:31.836Z,966.14
2016-12-24T04:57:57.822Z,966.18
2016-12-24T04:58:23.808Z,966.14
2016-12-24T04:58:49.792Z,966.14
2016-12-24T04:59:15.776Z,966.17
2016-12-24T04:59:41.761Z,966.18
2016-12-24T05:00:07.749Z,966.21
2016-12-24T05:00:33.737Z,966.19
2016-12-24T05:00:59.722Z,966.21
2016-12-24T05:01:25.712Z,966.19
2016-12-24T05:01:51.704Z,966.29
2016-12-24T05:02:17.693Z,966.27
2016-12-24T05:02:43.677Z,966.3
2016-12-24T05:03:09.662Z,966.27
2016-12-24T05:03:35.649Z,966.33
2016-12-24T05:04:01.631Z,966.28
2016-12-24T05:04:27.614Z,966.28
2016-12-24T05:04:53.624Z,966.22
2016-12-24T05:05:19.604Z,966.28
2016-12-24T05:05:45.597Z,966.25
2016-12-24T05:06:11.592Z,966.27
2016-12-24T05:06:37.580Z,966.28
2016-12-24T05:07:03.572Z,966.29
2016-12-24T05:07:29.552Z,966.23
2016-12-24T05:07:55.540Z,966.21
2016-12-24T05:08:21.520Z,966.24
2016-12-24T05:08:47.508Z,966.27
2016-12-24T05:09:13.504Z,966.29
2016-12-24T05:09:39.518Z,966.24
2016-12-24T05:10:05.519Z,966.24
2016-12-24T05:10:31.532Z,966.22
2016-12-24T05:10:57.530Z,966.25
2016-12-24T05:11:23.534Z,966.22
2016-12-24T05:11:49.533Z,966.22
2016-12-24T05:12:15.511Z,966.2
2016-12-24T05:12:41.497Z,966.2
2016-12-24T05:13:07.480Z,966.16
2016-12-24T05:13:33.473Z,966.15
2016-12-24T05:13:59.455Z,966.11
2016-12-24T05:14:25.450Z,966.13
2016-12-24T05:14:51.451Z,966.1
2016-12-24T05:15:17.436Z,966.09
2016-12-24T05:15:43.439Z,966.11
2016-12-24T05:16:09.421Z,966.03
2016-12-24T05:16:35.403Z,966.02
2016-12-24T05:17:01.387Z,966
2016-12-24T05:17:27.372Z,966
2016-12-24T05:17:53.355Z,966.03
2016-12-24T05:18:19.340Z,966.03
2016-12-24T05:18:45.333Z,966.06
2016-12-24T05:19:11.322Z,966.07
2016-12-24T05:19:37.307Z,966.02
2016-12-24T05:20:03.291Z,966.08
2016-12-24T05:20:29.273Z,966.08
2016-12-24T05:20:55.258Z,966.03
2016-12-24T05:21:21.245Z,966.03
2016-12-24T05:21:47.230Z,966.06
2016-12-24T05:22:13.213Z,966.08
2016-12-24T05:22:39.195Z,966.05
2016-12-24T05:23:05.179Z,966.03
2016-12-24T05:23:31.168Z,966.07
2016-12-24T05:23:57.152Z,966.09
2016-12-24T05:24:23.141Z,966.1
2016-12-24T05:24:49.168Z,966.1
2016-12-24T05:25:15.157Z,966.11